sensor_id;sensor_type;location;lat;lon;timestamp;P1;durP1;ratioP1;P2;durP2;ratioP2
43184;SDS011;28803;52.308;19.096;2022-12-29T00:00:19;8.75;;;3.47;;
43184;SDS011;28803;52.308;19.096;2022-12-29T00:03:07;9.30;;;4.75;;
43184;SDS011;28803;52.308;19.096;2022-12-29T00:05:34;9.65;;;4.85;;
43184;SDS011;28803;52.308;19.096;2022-12-29T00:08:02;8.63;;;3.50;;
43184;SDS011;28803;52.308;19.096;2022-12-29T00:10:29;8.40;;;4.07;;
43184;SDS011;28803;52.308;19.096;2022-12-29T00:12:56;7.82;;;3.70;;
43184;SDS011;28803;52.308;19.096;2022-12-29T00:15:42;9.32;;;4.28;;
43184;SDS011;28803;52.308;19.096;2022-12-29T00:18:09;9.77;;;3.83;;
43184;SDS011;28803;52.308;19.096;2022-12-29T00:20:37;5.97;;;3.30;;
43184;SDS011;28803;52.308;19.096;2022-12-29T00:23:23;8.30;;;3.70;;
43184;SDS011;28803;52.308;19.096;2022-12-29T00:26:12;8.70;;;3.35;;
43184;SDS011;28803;52.308;19.096;2022-12-29T00:29:00;10.40;;;3.88;;
43184;SDS011;28803;52.308;19.096;2022-12-29T00:31:45;6.72;;;3.65;;
43184;SDS011;28803;52.308;19.096;2022-12-29T00:34:31;11.88;;;4.45;;
43184;SDS011;28803;52.308;19.096;2022-12-29T00:37:17;9.02;;;3.70;;
43184;SDS011;28803;52.308;19.096;2022-12-29T00:40:04;8.35;;;3.75;;
43184;SDS011;28803;52.308;19.096;2022-12-29T00:42:50;8.85;;;3.30;;
43184;SDS011;28803;52.308;19.096;2022-12-29T00:45:36;8.75;;;3.60;;
43184;SDS011;28803;52.308;19.096;2022-12-29T00:48:05;9.73;;;3.88;;
43184;SDS011;28803;52.308;19.096;2022-12-29T00:50:33;7.20;;;3.25;;
43184;SDS011;28803;52.308;19.096;2022-12-29T00:53:00;9.50;;;3.95;;
43184;SDS011;28803;52.308;19.096;2022-12-29T00:55:27;7.95;;;3.25;;
43184;SDS011;28803;52.308;19.096;2022-12-29T00:57:54;11.70;;;4.45;;
43184;SDS011;28803;52.308;19.096;2022-12-29T01:00:22;5.80;;;3.22;;
43184;SDS011;28803;52.308;19.096;2022-12-29T01:02:49;10.30;;;3.75;;
43184;SDS011;28803;52.308;19.096;2022-12-29T01:05:17;9.60;;;4.07;;
43184;SDS011;28803;52.308;19.096;2022-12-29T01:07:44;7.57;;;3.88;;
43184;SDS011;28803;52.308;19.096;2022-12-29T01:10:11;8.95;;;3.92;;
43184;SDS011;28803;52.308;19.096;2022-12-29T01:12:38;9.32;;;4.93;;
43184;SDS011;28803;52.308;19.096;2022-12-29T01:15:10;11.23;;;3.92;;
43184;SDS011;28803;52.308;19.096;2022-12-29T01:17:38;11.25;;;4.15;;
43184;SDS011;28803;52.308;19.096;2022-12-29T01:20:06;6.70;;;3.80;;
43184;SDS011;28803;52.308;19.096;2022-12-29T01:22:33;8.05;;;3.38;;
43184;SDS011;28803;52.308;19.096;2022-12-29T01:25:00;11.93;;;3.47;;
43184;SDS011;28803;52.308;19.096;2022-12-29T01:27:28;7.03;;;3.88;;
43184;SDS011;28803;52.308;19.096;2022-12-29T01:29:55;8.85;;;3.50;;
43184;SDS011;28803;52.308;19.096;2022-12-29T01:32:22;7.95;;;3.35;;
43184;SDS011;28803;52.308;19.096;2022-12-29T01:34:50;5.60;;;3.22;;
43184;SDS011;28803;52.308;19.096;2022-12-29T01:37:17;8.25;;;3.60;;
43184;SDS011;28803;52.308;19.096;2022-12-29T01:39:44;8.00;;;3.25;;
43184;SDS011;28803;52.308;19.096;2022-12-29T01:42:16;7.50;;;3.03;;
43184;SDS011;28803;52.308;19.096;2022-12-29T01:47:13;10.70;;;3.17;;
43184;SDS011;28803;52.308;19.096;2022-12-29T01:49:46;6.57;;;3.50;;
43184;SDS011;28803;52.308;19.096;2022-12-29T01:52:13;5.88;;;2.88;;
43184;SDS011;28803;52.308;19.096;2022-12-29T01:54:47;7.60;;;3.83;;
43184;SDS011;28803;52.308;19.096;2022-12-29T01:57:20;10.85;;;2.95;;
43184;SDS011;28803;52.308;19.096;2022-12-29T01:59:56;10.27;;;3.88;;
43184;SDS011;28803;52.308;19.096;2022-12-29T02:02:27;9.45;;;3.10;;
43184;SDS011;28803;52.308;19.096;2022-12-29T02:04:59;6.47;;;2.70;;
43184;SDS011;28803;52.308;19.096;2022-12-29T02:07:40;7.28;;;3.58;;
43184;SDS011;28803;52.308;19.096;2022-12-29T02:10:08;9.15;;;3.40;;
43184;SDS011;28803;52.308;19.096;2022-12-29T02:12:36;8.43;;;3.47;;
43184;SDS011;28803;52.308;19.096;2022-12-29T02:15:03;8.70;;;3.20;;
43184;SDS011;28803;52.308;19.096;2022-12-29T02:28:58;6.72;;;2.90;;
43184;SDS011;28803;52.308;19.096;2022-12-29T02:42:50;7.22;;;2.58;;
43184;SDS011;28803;52.308;19.096;2022-12-29T02:48:10;5.53;;;2.60;;
43184;SDS011;28803;52.308;19.096;2022-12-29T02:50:41;5.93;;;2.30;;
43184;SDS011;28803;52.308;19.096;2022-12-29T02:53:16;7.22;;;3.10;;
43184;SDS011;28803;52.308;19.096;2022-12-29T02:56:05;5.30;;;2.78;;
43184;SDS011;28803;52.308;19.096;2022-12-29T02:58:33;4.35;;;2.55;;
43184;SDS011;28803;52.308;19.096;2022-12-29T03:04:14;5.00;;;2.33;;
43184;SDS011;28803;52.308;19.096;2022-12-29T03:12:31;5.82;;;3.13;;
43184;SDS011;28803;52.308;19.096;2022-12-29T03:23:36;5.75;;;2.42;;
43184;SDS011;28803;52.308;19.096;2022-12-29T03:26:06;4.47;;;2.42;;
43184;SDS011;28803;52.308;19.096;2022-12-29T03:28:42;4.75;;;1.73;;
43184;SDS011;28803;52.308;19.096;2022-12-29T03:31:14;7.32;;;2.03;;
43184;SDS011;28803;52.308;19.096;2022-12-29T03:33:42;5.35;;;2.60;;
43184;SDS011;28803;52.308;19.096;2022-12-29T03:36:14;9.77;;;2.28;;
43184;SDS011;28803;52.308;19.096;2022-12-29T03:38:55;5.50;;;1.85;;
43184;SDS011;28803;52.308;19.096;2022-12-29T03:41:30;5.90;;;2.08;;
43184;SDS011;28803;52.308;19.096;2022-12-29T03:43:58;8.20;;;2.28;;
43184;SDS011;28803;52.308;19.096;2022-12-29T03:46:25;6.20;;;2.28;;
43184;SDS011;28803;52.308;19.096;2022-12-29T03:48:52;5.03;;;1.88;;
43184;SDS011;28803;52.308;19.096;2022-12-29T03:51:20;3.88;;;1.73;;
43184;SDS011;28803;52.308;19.096;2022-12-29T03:53:47;4.82;;;2.33;;
43184;SDS011;28803;52.308;19.096;2022-12-29T03:56:14;5.72;;;2.35;;
43184;SDS011;28803;52.308;19.096;2022-12-29T03:58:41;8.43;;;1.73;;
43184;SDS011;28803;52.308;19.096;2022-12-29T04:01:08;6.47;;;1.70;;
43184;SDS011;28803;52.308;19.096;2022-12-29T04:03:35;3.33;;;1.58;;
43184;SDS011;28803;52.308;19.096;2022-12-29T04:06:03;4.45;;;1.80;;
43184;SDS011;28803;52.308;19.096;2022-12-29T04:08:31;3.38;;;1.67;;
43184;SDS011;28803;52.308;19.096;2022-12-29T04:10:59;2.90;;;1.50;;
43184;SDS011;28803;52.308;19.096;2022-12-29T04:13:26;2.78;;;1.50;;
43184;SDS011;28803;52.308;19.096;2022-12-29T04:15:53;3.05;;;1.65;;
43184;SDS011;28803;52.308;19.096;2022-12-29T04:18:20;4.07;;;2.00;;
43184;SDS011;28803;52.308;19.096;2022-12-29T04:20:48;5.60;;;1.67;;
43184;SDS011;28803;52.308;19.096;2022-12-29T04:23:27;3.42;;;1.60;;
43184;SDS011;28803;52.308;19.096;2022-12-29T04:25:56;4.93;;;1.42;;
43184;SDS011;28803;52.308;19.096;2022-12-29T04:28:23;3.45;;;1.92;;
43184;SDS011;28803;52.308;19.096;2022-12-29T04:30:51;3.53;;;1.60;;
43184;SDS011;28803;52.308;19.096;2022-12-29T04:33:19;8.13;;;1.73;;
43184;SDS011;28803;52.308;19.096;2022-12-29T04:35:47;4.13;;;2.22;;
43184;SDS011;28803;52.308;19.096;2022-12-29T04:38:15;3.65;;;1.75;;
43184;SDS011;28803;52.308;19.096;2022-12-29T04:40:44;2.80;;;1.70;;
43184;SDS011;28803;52.308;19.096;2022-12-29T04:43:11;3.47;;;1.55;;
43184;SDS011;28803;52.308;19.096;2022-12-29T04:45:43;5.18;;;1.60;;
43184;SDS011;28803;52.308;19.096;2022-12-29T04:48:11;3.80;;;1.73;;
43184;SDS011;28803;52.308;19.096;2022-12-29T04:50:39;3.92;;;1.77;;
43184;SDS011;28803;52.308;19.096;2022-12-29T04:53:07;5.25;;;2.17;;
43184;SDS011;28803;52.308;19.096;2022-12-29T04:55:34;6.13;;;1.70;;
43184;SDS011;28803;52.308;19.096;2022-12-29T04:58:02;3.33;;;1.50;;
43184;SDS011;28803;52.308;19.096;2022-12-29T05:00:29;5.65;;;1.90;;
43184;SDS011;28803;52.308;19.096;2022-12-29T05:02:56;3.00;;;1.75;;
43184;SDS011;28803;52.308;19.096;2022-12-29T05:05:24;2.50;;;1.27;;
43184;SDS011;28803;52.308;19.096;2022-12-29T05:07:51;4.75;;;1.58;;
43184;SDS011;28803;52.308;19.096;2022-12-29T05:10:19;4.00;;;1.88;;
43184;SDS011;28803;52.308;19.096;2022-12-29T05:12:46;4.97;;;1.83;;
43184;SDS011;28803;52.308;19.096;2022-12-29T05:15:13;3.72;;;1.77;;
43184;SDS011;28803;52.308;19.096;2022-12-29T05:20:45;4.05;;;1.60;;
43184;SDS011;28803;52.308;19.096;2022-12-29T05:23:14;3.47;;;1.77;;
43184;SDS011;28803;52.308;19.096;2022-12-29T05:25:43;3.28;;;1.58;;
43184;SDS011;28803;52.308;19.096;2022-12-29T05:28:12;3.92;;;1.65;;
43184;SDS011;28803;52.308;19.096;2022-12-29T05:30:40;5.53;;;1.80;;
43184;SDS011;28803;52.308;19.096;2022-12-29T05:33:07;4.43;;;1.90;;
43184;SDS011;28803;52.308;19.096;2022-12-29T05:35:38;3.30;;;2.10;;
43184;SDS011;28803;52.308;19.096;2022-12-29T05:38:05;6.20;;;1.80;;
43184;SDS011;28803;52.308;19.096;2022-12-29T05:40:33;4.28;;;2.15;;
43184;SDS011;28803;52.308;19.096;2022-12-29T05:43:00;4.28;;;2.03;;
43184;SDS011;28803;52.308;19.096;2022-12-29T05:45:27;3.13;;;1.50;;
43184;SDS011;28803;52.308;19.096;2022-12-29T05:47:54;4.57;;;2.00;;
43184;SDS011;28803;52.308;19.096;2022-12-29T05:50:22;3.67;;;1.73;;
43184;SDS011;28803;52.308;19.096;2022-12-29T05:52:49;3.33;;;1.70;;
43184;SDS011;28803;52.308;19.096;2022-12-29T05:55:18;4.85;;;2.20;;
43184;SDS011;28803;52.308;19.096;2022-12-29T05:57:45;3.00;;;1.52;;
43184;SDS011;28803;52.308;19.096;2022-12-29T06:00:12;4.72;;;2.10;;
43184;SDS011;28803;52.308;19.096;2022-12-29T06:02:40;3.70;;;1.70;;
43184;SDS011;28803;52.308;19.096;2022-12-29T06:05:08;4.40;;;2.20;;
43184;SDS011;28803;52.308;19.096;2022-12-29T06:07:35;6.60;;;2.38;;
43184;SDS011;28803;52.308;19.096;2022-12-29T06:10:03;4.47;;;2.30;;
43184;SDS011;28803;52.308;19.096;2022-12-29T06:12:31;4.78;;;2.10;;
43184;SDS011;28803;52.308;19.096;2022-12-29T06:14:58;3.58;;;1.48;;
43184;SDS011;28803;52.308;19.096;2022-12-29T06:17:26;4.82;;;1.90;;
43184;SDS011;28803;52.308;19.096;2022-12-29T06:19:53;5.60;;;1.65;;
43184;SDS011;28803;52.308;19.096;2022-12-29T06:22:20;3.65;;;1.75;;
43184;SDS011;28803;52.308;19.096;2022-12-29T06:24:47;3.63;;;1.50;;
43184;SDS011;28803;52.308;19.096;2022-12-29T06:27:15;6.75;;;2.63;;
43184;SDS011;28803;52.308;19.096;2022-12-29T06:29:43;5.22;;;1.90;;
43184;SDS011;28803;52.308;19.096;2022-12-29T06:32:10;4.68;;;2.50;;
43184;SDS011;28803;52.308;19.096;2022-12-29T06:34:38;4.93;;;1.67;;
43184;SDS011;28803;52.308;19.096;2022-12-29T06:37:05;10.82;;;1.88;;
43184;SDS011;28803;52.308;19.096;2022-12-29T06:39:33;3.92;;;2.10;;
43184;SDS011;28803;52.308;19.096;2022-12-29T06:42:00;3.95;;;1.70;;
43184;SDS011;28803;52.308;19.096;2022-12-29T06:44:27;4.55;;;1.90;;
43184;SDS011;28803;52.308;19.096;2022-12-29T06:46:54;4.88;;;2.10;;
43184;SDS011;28803;52.308;19.096;2022-12-29T06:49:22;4.68;;;2.17;;
43184;SDS011;28803;52.308;19.096;2022-12-29T06:51:49;3.75;;;1.98;;
43184;SDS011;28803;52.308;19.096;2022-12-29T06:54:17;4.20;;;2.20;;
43184;SDS011;28803;52.308;19.096;2022-12-29T06:56:44;3.63;;;1.73;;
43184;SDS011;28803;52.308;19.096;2022-12-29T06:59:11;2.92;;;1.95;;
43184;SDS011;28803;52.308;19.096;2022-12-29T07:01:38;7.10;;;2.53;;
43184;SDS011;28803;52.308;19.096;2022-12-29T07:04:06;3.90;;;1.85;;
43184;SDS011;28803;52.308;19.096;2022-12-29T07:06:33;4.57;;;1.70;;
43184;SDS011;28803;52.308;19.096;2022-12-29T07:09:00;6.35;;;2.25;;
43184;SDS011;28803;52.308;19.096;2022-12-29T07:11:28;3.38;;;1.73;;
43184;SDS011;28803;52.308;19.096;2022-12-29T07:13:55;4.40;;;2.10;;
43184;SDS011;28803;52.308;19.096;2022-12-29T07:16:29;4.65;;;2.15;;
43184;SDS011;28803;52.308;19.096;2022-12-29T07:18:58;5.60;;;2.00;;
43184;SDS011;28803;52.308;19.096;2022-12-29T07:21:25;4.43;;;1.80;;
43184;SDS011;28803;52.308;19.096;2022-12-29T07:23:53;4.75;;;2.17;;
43184;SDS011;28803;52.308;19.096;2022-12-29T07:26:21;4.03;;;1.52;;
43184;SDS011;28803;52.308;19.096;2022-12-29T07:28:49;5.00;;;2.03;;
43184;SDS011;28803;52.308;19.096;2022-12-29T07:31:20;4.70;;;2.28;;
43184;SDS011;28803;52.308;19.096;2022-12-29T07:33:48;4.72;;;2.28;;
43184;SDS011;28803;52.308;19.096;2022-12-29T07:36:16;4.10;;;1.88;;
43184;SDS011;28803;52.308;19.096;2022-12-29T07:38:43;5.38;;;1.65;;
43184;SDS011;28803;52.308;19.096;2022-12-29T07:41:11;3.22;;;1.83;;
43184;SDS011;28803;52.308;19.096;2022-12-29T07:43:38;6.30;;;2.22;;
43184;SDS011;28803;52.308;19.096;2022-12-29T07:46:05;4.10;;;1.70;;
43184;SDS011;28803;52.308;19.096;2022-12-29T07:48:32;3.40;;;1.70;;
43184;SDS011;28803;52.308;19.096;2022-12-29T07:51:03;5.55;;;2.20;;
43184;SDS011;28803;52.308;19.096;2022-12-29T07:53:30;4.47;;;2.22;;
43184;SDS011;28803;52.308;19.096;2022-12-29T07:55:57;4.80;;;1.83;;
43184;SDS011;28803;52.308;19.096;2022-12-29T07:58:25;5.28;;;1.92;;
43184;SDS011;28803;52.308;19.096;2022-12-29T08:00:53;5.65;;;1.88;;
43184;SDS011;28803;52.308;19.096;2022-12-29T08:03:21;6.22;;;2.25;;
43184;SDS011;28803;52.308;19.096;2022-12-29T08:05:49;4.70;;;2.22;;
43184;SDS011;28803;52.308;19.096;2022-12-29T08:08:16;4.75;;;2.25;;
43184;SDS011;28803;52.308;19.096;2022-12-29T08:10:43;4.60;;;2.20;;
43184;SDS011;28803;52.308;19.096;2022-12-29T08:13:10;3.92;;;1.90;;
43184;SDS011;28803;52.308;19.096;2022-12-29T08:15:39;5.68;;;2.03;;
43184;SDS011;28803;52.308;19.096;2022-12-29T08:18:06;3.55;;;1.88;;
43184;SDS011;28803;52.308;19.096;2022-12-29T08:20:33;72.97;;;26.52;;
43184;SDS011;28803;52.308;19.096;2022-12-29T08:23:00;59.10;;;27.10;;
43184;SDS011;28803;52.308;19.096;2022-12-29T08:25:28;829.67;;;323.38;;
43184;SDS011;28803;52.308;19.096;2022-12-29T08:27:55;1276.03;;;504.23;;
43184;SDS011;28803;52.308;19.096;2022-12-29T08:30:23;1552.28;;;626.45;;
43184;SDS011;28803;52.308;19.096;2022-12-29T08:32:50;939.65;;;411.55;;
43184;SDS011;28803;52.308;19.096;2022-12-29T08:35:18;619.03;;;269.02;;
43184;SDS011;28803;52.308;19.096;2022-12-29T08:37:45;690.97;;;327.05;;
43184;SDS011;28803;52.308;19.096;2022-12-29T08:40:14;380.00;;;178.57;;
43184;SDS011;28803;52.308;19.096;2022-12-29T08:42:41;676.90;;;320.20;;
43184;SDS011;28803;52.308;19.096;2022-12-29T08:45:09;105.88;;;72.32;;
43184;SDS011;28803;52.308;19.096;2022-12-29T08:47:37;65.93;;;56.78;;
43184;SDS011;28803;52.308;19.096;2022-12-29T08:50:05;16.15;;;14.23;;
43184;SDS011;28803;52.308;19.096;2022-12-29T08:52:32;169.40;;;95.80;;
43184;SDS011;28803;52.308;19.096;2022-12-29T08:55:00;46.65;;;39.08;;
43184;SDS011;28803;52.308;19.096;2022-12-29T08:57:27;37.65;;;30.00;;
43184;SDS011;28803;52.308;19.096;2022-12-29T08:59:54;77.90;;;46.85;;
43184;SDS011;28803;52.308;19.096;2022-12-29T09:02:21;177.25;;;97.88;;
43184;SDS011;28803;52.308;19.096;2022-12-29T09:04:51;66.85;;;43.80;;
43184;SDS011;28803;52.308;19.096;2022-12-29T09:07:18;56.80;;;36.33;;
43184;SDS011;28803;52.308;19.096;2022-12-29T09:09:45;32.92;;;22.33;;
43184;SDS011;28803;52.308;19.096;2022-12-29T09:12:12;17.05;;;14.93;;
43184;SDS011;28803;52.308;19.096;2022-12-29T09:14:40;14.70;;;12.45;;
43184;SDS011;28803;52.308;19.096;2022-12-29T09:17:09;8.75;;;6.03;;
43184;SDS011;28803;52.308;19.096;2022-12-29T09:19:55;8.27;;;6.80;;
43184;SDS011;28803;52.308;19.096;2022-12-29T09:22:23;6.78;;;5.78;;
43184;SDS011;28803;52.308;19.096;2022-12-29T09:24:50;9.30;;;4.82;;
43184;SDS011;28803;52.308;19.096;2022-12-29T09:27:17;6.43;;;3.30;;
43184;SDS011;28803;52.308;19.096;2022-12-29T09:29:44;7.07;;;3.30;;
43184;SDS011;28803;52.308;19.096;2022-12-29T09:32:11;6.18;;;3.65;;
43184;SDS011;28803;52.308;19.096;2022-12-29T09:34:44;5.32;;;3.40;;
43184;SDS011;28803;52.308;19.096;2022-12-29T09:37:11;5.32;;;3.35;;
43184;SDS011;28803;52.308;19.096;2022-12-29T09:39:39;6.60;;;2.70;;
43184;SDS011;28803;52.308;19.096;2022-12-29T09:42:13;9.60;;;2.78;;
43184;SDS011;28803;52.308;19.096;2022-12-29T09:47:30;8.50;;;3.65;;
43184;SDS011;28803;52.308;19.096;2022-12-29T09:52:45;92.03;;;41.72;;
43184;SDS011;28803;52.308;19.096;2022-12-29T09:55:22;214.13;;;105.68;;
43184;SDS011;28803;52.308;19.096;2022-12-29T09:58:02;37.10;;;29.92;;
43184;SDS011;28803;52.308;19.096;2022-12-29T10:00:41;19.00;;;16.90;;
43184;SDS011;28803;52.308;19.096;2022-12-29T10:03:21;9.80;;;6.88;;
43184;SDS011;28803;52.308;19.096;2022-12-29T10:08:50;13.48;;;7.72;;
43184;SDS011;28803;52.308;19.096;2022-12-29T10:11:43;14.30;;;11.60;;
43184;SDS011;28803;52.308;19.096;2022-12-29T10:17:13;11.05;;;7.45;;
43184;SDS011;28803;52.308;19.096;2022-12-29T10:20:10;9.85;;;4.65;;
43184;SDS011;28803;52.308;19.096;2022-12-29T10:25:28;7.28;;;4.00;;
43184;SDS011;28803;52.308;19.096;2022-12-29T10:28:01;10.13;;;4.53;;
43184;SDS011;28803;52.308;19.096;2022-12-29T10:30:33;5.57;;;2.95;;
43184;SDS011;28803;52.308;19.096;2022-12-29T10:33:03;7.95;;;3.75;;
43184;SDS011;28803;52.308;19.096;2022-12-29T10:35:35;6.15;;;3.10;;
43184;SDS011;28803;52.308;19.096;2022-12-29T10:40:58;6.70;;;3.58;;
43184;SDS011;28803;52.308;19.096;2022-12-29T10:43:33;9.00;;;2.85;;
43184;SDS011;28803;52.308;19.096;2022-12-29T10:46:22;5.47;;;3.50;;
43184;SDS011;28803;52.308;19.096;2022-12-29T10:48:53;6.70;;;2.55;;
43184;SDS011;28803;52.308;19.096;2022-12-29T10:51:30;7.93;;;2.72;;
43184;SDS011;28803;52.308;19.096;2022-12-29T10:54:11;4.93;;;2.83;;
43184;SDS011;28803;52.308;19.096;2022-12-29T10:56:40;4.97;;;2.78;;
43184;SDS011;28803;52.308;19.096;2022-12-29T11:02:38;6.10;;;3.40;;
43184;SDS011;28803;52.308;19.096;2022-12-29T11:07:22;5.95;;;2.70;;
43184;SDS011;28803;52.308;19.096;2022-12-29T11:09:53;6.30;;;2.72;;
43184;SDS011;28803;52.308;19.096;2022-12-29T11:12:28;8.68;;;2.30;;
43184;SDS011;28803;52.308;19.096;2022-12-29T11:15:11;6.57;;;2.78;;
43184;SDS011;28803;52.308;19.096;2022-12-29T11:17:47;7.78;;;2.88;;
43184;SDS011;28803;52.308;19.096;2022-12-29T11:20:30;8.52;;;3.10;;
43184;SDS011;28803;52.308;19.096;2022-12-29T11:26:06;7.57;;;3.85;;
43184;SDS011;28803;52.308;19.096;2022-12-29T11:28:33;9.60;;;5.78;;
43184;SDS011;28803;52.308;19.096;2022-12-29T11:31:02;9.35;;;3.92;;
43184;SDS011;28803;52.308;19.096;2022-12-29T11:33:32;8.25;;;4.10;;
43184;SDS011;28803;52.308;19.096;2022-12-29T11:36:02;7.47;;;3.92;;
43184;SDS011;28803;52.308;19.096;2022-12-29T11:38:34;8.43;;;3.13;;
43184;SDS011;28803;52.308;19.096;2022-12-29T11:41:04;6.22;;;3.60;;
43184;SDS011;28803;52.308;19.096;2022-12-29T11:43:33;6.95;;;3.20;;
43184;SDS011;28803;52.308;19.096;2022-12-29T11:46:05;5.90;;;3.10;;
43184;SDS011;28803;52.308;19.096;2022-12-29T11:48:39;7.03;;;3.45;;
43184;SDS011;28803;52.308;19.096;2022-12-29T11:51:08;8.75;;;5.10;;
43184;SDS011;28803;52.308;19.096;2022-12-29T11:56:17;5.35;;;2.72;;
43184;SDS011;28803;52.308;19.096;2022-12-29T11:59:29;6.95;;;3.35;;
43184;SDS011;28803;52.308;19.096;2022-12-29T12:05:09;4.25;;;2.67;;
43184;SDS011;28803;52.308;19.096;2022-12-29T12:07:46;21.05;;;14.20;;
43184;SDS011;28803;52.308;19.096;2022-12-29T12:10:25;17.83;;;11.25;;
43184;SDS011;28803;52.308;19.096;2022-12-29T12:13:02;36.63;;;21.98;;
43184;SDS011;28803;52.308;19.096;2022-12-29T12:15:54;24.00;;;13.88;;
43184;SDS011;28803;52.308;19.096;2022-12-29T12:21:11;10.30;;;4.97;;
43184;SDS011;28803;52.308;19.096;2022-12-29T12:26:39;12.00;;;6.80;;
43184;SDS011;28803;52.308;19.096;2022-12-29T12:29:21;8.02;;;3.78;;
43184;SDS011;28803;52.308;19.096;2022-12-29T12:32:23;8.02;;;3.97;;
43184;SDS011;28803;52.308;19.096;2022-12-29T12:34:51;6.85;;;3.72;;
43184;SDS011;28803;52.308;19.096;2022-12-29T12:58:57;16.17;;;7.70;;
43184;SDS011;28803;52.308;19.096;2022-12-29T13:02:06;11.05;;;3.60;;
43184;SDS011;28803;52.308;19.096;2022-12-29T13:04:47;7.63;;;4.10;;
43184;SDS011;28803;52.308;19.096;2022-12-29T13:07:40;133.27;;;60.60;;
43184;SDS011;28803;52.308;19.096;2022-12-29T13:10:40;154.57;;;76.43;;
43184;SDS011;28803;52.308;19.096;2022-12-29T13:19:04;33.80;;;30.20;;
43184;SDS011;28803;52.308;19.096;2022-12-29T13:27:58;8.38;;;4.60;;
43184;SDS011;28803;52.308;19.096;2022-12-29T13:30:15;5.43;;;3.40;;
43184;SDS011;28803;52.308;19.096;2022-12-29T13:33:07;6.28;;;4.00;;
43184;SDS011;28803;52.308;19.096;2022-12-29T13:38:40;12.63;;;5.40;;
43184;SDS011;28803;52.308;19.096;2022-12-29T13:41:27;4.85;;;3.20;;
43184;SDS011;28803;52.308;19.096;2022-12-29T13:44:03;9.50;;;5.18;;
43184;SDS011;28803;52.308;19.096;2022-12-29T13:46:38;6.57;;;4.40;;
43184;SDS011;28803;52.308;19.096;2022-12-29T13:49:13;8.88;;;5.40;;
43184;SDS011;28803;52.308;19.096;2022-12-29T13:51:56;6.00;;;4.13;;
43184;SDS011;28803;52.308;19.096;2022-12-29T14:00:43;9.20;;;4.05;;
43184;SDS011;28803;52.308;19.096;2022-12-29T14:06:20;55.88;;;50.28;;
43184;SDS011;28803;52.308;19.096;2022-12-29T14:09:01;102.60;;;92.07;;
43184;SDS011;28803;52.308;19.096;2022-12-29T14:11:36;59.47;;;53.33;;
43184;SDS011;28803;52.308;19.096;2022-12-29T14:14:12;12.00;;;10.80;;
43184;SDS011;28803;52.308;19.096;2022-12-29T14:16:48;9.82;;;7.95;;
43184;SDS011;28803;52.308;19.096;2022-12-29T14:22:13;18.40;;;13.52;;
43184;SDS011;28803;52.308;19.096;2022-12-29T14:24:59;11.63;;;10.20;;
43184;SDS011;28803;52.308;19.096;2022-12-29T14:30:00;12.70;;;10.15;;
43184;SDS011;28803;52.308;19.096;2022-12-29T14:34:56;8.57;;;4.95;;
43184;SDS011;28803;52.308;19.096;2022-12-29T14:37:29;7.57;;;4.88;;
43184;SDS011;28803;52.308;19.096;2022-12-29T14:40:06;18.98;;;11.95;;
43184;SDS011;28803;52.308;19.096;2022-12-29T14:42:47;8.75;;;6.43;;
43184;SDS011;28803;52.308;19.096;2022-12-29T14:47:43;83.00;;;51.00;;
43184;SDS011;28803;52.308;19.096;2022-12-29T14:50:21;24.00;;;17.17;;
43184;SDS011;28803;52.308;19.096;2022-12-29T14:55:47;24.38;;;16.60;;
43184;SDS011;28803;52.308;19.096;2022-12-29T15:07:02;10.93;;;6.30;;
43184;SDS011;28803;52.308;19.096;2022-12-29T15:09:34;18.30;;;5.80;;
43184;SDS011;28803;52.308;19.096;2022-12-29T15:15:00;17.20;;;8.60;;
43184;SDS011;28803;52.308;19.096;2022-12-29T15:17:30;9.45;;;4.80;;
43184;SDS011;28803;52.308;19.096;2022-12-29T15:20:00;8.10;;;4.20;;
43184;SDS011;28803;52.308;19.096;2022-12-29T15:22:44;7.30;;;3.35;;
43184;SDS011;28803;52.308;19.096;2022-12-29T15:25:15;7.97;;;2.90;;
43184;SDS011;28803;52.308;19.096;2022-12-29T15:27:48;7.45;;;3.75;;
43184;SDS011;28803;52.308;19.096;2022-12-29T15:30:29;8.27;;;3.38;;
43184;SDS011;28803;52.308;19.096;2022-12-29T15:32:56;7.13;;;3.78;;
43184;SDS011;28803;52.308;19.096;2022-12-29T15:38:14;8.32;;;3.42;;
43184;SDS011;28803;52.308;19.096;2022-12-29T15:41:03;10.32;;;3.58;;
43184;SDS011;28803;52.308;19.096;2022-12-29T15:46:24;8.23;;;3.30;;
43184;SDS011;28803;52.308;19.096;2022-12-29T15:48:52;29.02;;;13.18;;
43184;SDS011;28803;52.308;19.096;2022-12-29T15:51:21;17.50;;;10.45;;
43184;SDS011;28803;52.308;19.096;2022-12-29T15:53:56;44.97;;;40.38;;
43184;SDS011;28803;52.308;19.096;2022-12-29T15:56:24;24.92;;;17.17;;
43184;SDS011;28803;52.308;19.096;2022-12-29T15:58:55;23.17;;;11.63;;
43184;SDS011;28803;52.308;19.096;2022-12-29T16:01:24;12.82;;;6.38;;
43184;SDS011;28803;52.308;19.096;2022-12-29T16:03:59;12.07;;;5.53;;
43184;SDS011;28803;52.308;19.096;2022-12-29T16:06:38;9.32;;;5.30;;
43184;SDS011;28803;52.308;19.096;2022-12-29T16:09:18;10.57;;;5.15;;
43184;SDS011;28803;52.308;19.096;2022-12-29T16:11:55;11.35;;;5.18;;
43184;SDS011;28803;52.308;19.096;2022-12-29T16:17:01;7.53;;;4.68;;
43184;SDS011;28803;52.308;19.096;2022-12-29T16:22:02;11.32;;;7.25;;
43184;SDS011;28803;52.308;19.096;2022-12-29T16:24:37;11.63;;;6.00;;
43184;SDS011;28803;52.308;19.096;2022-12-29T16:27:09;12.13;;;6.03;;
43184;SDS011;28803;52.308;19.096;2022-12-29T16:29:46;10.68;;;5.45;;
43184;SDS011;28803;52.308;19.096;2022-12-29T16:32:28;9.43;;;4.75;;
43184;SDS011;28803;52.308;19.096;2022-12-29T16:35:02;7.32;;;4.05;;
43184;SDS011;28803;52.308;19.096;2022-12-29T16:37:38;9.35;;;3.58;;
43184;SDS011;28803;52.308;19.096;2022-12-29T16:42:49;9.85;;;4.32;;
43184;SDS011;28803;52.308;19.096;2022-12-29T16:47:45;9.95;;;4.32;;
43184;SDS011;28803;52.308;19.096;2022-12-29T16:50:18;8.23;;;3.65;;
43184;SDS011;28803;52.308;19.096;2022-12-29T16:52:53;37.40;;;14.15;;
43184;SDS011;28803;52.308;19.096;2022-12-29T16:55:21;172.68;;;67.97;;
43184;SDS011;28803;52.308;19.096;2022-12-29T16:57:49;59.15;;;28.10;;
43184;SDS011;28803;52.308;19.096;2022-12-29T17:00:21;34.55;;;17.45;;
43184;SDS011;28803;52.308;19.096;2022-12-29T17:02:51;51.33;;;26.92;;
43184;SDS011;28803;52.308;19.096;2022-12-29T17:05:22;43.72;;;23.00;;
43184;SDS011;28803;52.308;19.096;2022-12-29T17:07:49;41.13;;;19.27;;
43184;SDS011;28803;52.308;19.096;2022-12-29T17:10:17;30.58;;;14.60;;
43184;SDS011;28803;52.308;19.096;2022-12-29T17:12:46;17.67;;;10.57;;
43184;SDS011;28803;52.308;19.096;2022-12-29T17:15:21;14.15;;;7.43;;
43184;SDS011;28803;52.308;19.096;2022-12-29T17:17:53;29.48;;;14.60;;
43184;SDS011;28803;52.308;19.096;2022-12-29T17:20:23;16.83;;;8.27;;
43184;SDS011;28803;52.308;19.096;2022-12-29T17:22:52;9.02;;;5.10;;
43184;SDS011;28803;52.308;19.096;2022-12-29T17:25:21;11.77;;;6.60;;
43184;SDS011;28803;52.308;19.096;2022-12-29T17:27:52;12.25;;;5.55;;
43184;SDS011;28803;52.308;19.096;2022-12-29T17:30:29;14.70;;;7.25;;
43184;SDS011;28803;52.308;19.096;2022-12-29T17:33:04;14.82;;;7.43;;
43184;SDS011;28803;52.308;19.096;2022-12-29T17:35:36;54.22;;;35.45;;
43184;SDS011;28803;52.308;19.096;2022-12-29T17:38:10;39.70;;;35.75;;
43184;SDS011;28803;52.308;19.096;2022-12-29T17:43:14;8.65;;;6.53;;
43184;SDS011;28803;52.308;19.096;2022-12-29T17:45:42;12.55;;;6.35;;
43184;SDS011;28803;52.308;19.096;2022-12-29T17:48:15;13.65;;;8.50;;